sensor_id;sensor_type;location;lat;lon;timestamp;pressure;altitude;pressure_sealevel;temperature;humidity
5284;BME280;15377;48.540;9.268;2022-12-05T00:00:29;97213.84;;;2.75;100.00
5284;BME280;15377;48.540;9.268;2022-12-05T00:02:54;97208.31;;;2.79;100.00
5284;BME280;15377;48.540;9.268;2022-12-05T00:05:20;97212.16;;;2.81;100.00
5284;BME280;15377;48.540;9.268;2022-12-05T00:07:45;97204.66;;;2.69;100.00
5284;BME280;15377;48.540;9.268;2022-12-05T00:10:10;97208.91;;;2.86;100.00
5284;BME280;15377;48.540;9.268;2022-12-05T00:12:36;97219.94;;;2.79;100.00
5284;BME280;15377;48.540;9.268;2022-12-05T00:15:01;97220.56;;;2.87;100.00
5284;BME280;15377;48.540;9.268;2022-12-05T00:17:26;97186.50;;;2.66;100.00
5284;BME280;15377;48.540;9.268;2022-12-05T00:19:52;97210.53;;;2.84;100.00
5284;BME280;15377;48.540;9.268;2022-12-05T00:22:17;97223.75;;;2.82;100.00
5284;BME280;15377;48.540;9.268;2022-12-05T00:24:42;97223.19;;;2.74;100.00
5284;BME280;15377;48.540;9.268;2022-12-05T00:27:08;97212.81;;;2.69;100.00
5284;BME280;15377;48.540;9.268;2022-12-05T00:29:33;97205.34;;;2.57;100.00
5284;BME280;15377;48.540;9.268;2022-12-05T00:31:58;97222.50;;;2.70;100.00
5284;BME280;15377;48.540;9.268;2022-12-05T00:34:24;97225.56;;;2.72;100.00
5284;BME280;15377;48.540;9.268;2022-12-05T00:36:49;97218.78;;;2.64;100.00
5284;BME280;15377;48.540;9.268;2022-12-05T00:39:15;97230.56;;;2.74;100.00
5284;BME280;15377;48.540;9.268;2022-12-05T00:41:41;97232.63;;;2.70;100.00
5284;BME280;15377;48.540;9.268;2022-12-05T00:44:09;97246.84;;;2.74;100.00
5284;BME280;15377;48.540;9.268;2022-12-05T00:46:35;97243.31;;;2.77;100.00
5284;BME280;15377;48.540;9.268;2022-12-05T00:49:03;97208.91;;;2.54;100.00
5284;BME280;15377;48.540;9.268;2022-12-05T00:51:31;97248.91;;;2.70;100.00
5284;BME280;15377;48.540;9.268;2022-12-05T00:53:59;97256.97;;;2.73;100.00
5284;BME280;15377;48.540;9.268;2022-12-05T00:56:26;97261.22;;;2.74;100.00
5284;BME280;15377;48.540;9.268;2022-12-05T00:58:53;97261.31;;;2.71;100.00
5284;BME280;15377;48.540;9.268;2022-12-05T01:01:22;97266.66;;;2.74;100.00
5284;BME280;15377;48.540;9.268;2022-12-05T01:03:51;97272.59;;;2.69;100.00
5284;BME280;15377;48.540;9.268;2022-12-05T01:06:16;97258.06;;;2.60;100.00
5284;BME280;15377;48.540;9.268;2022-12-05T01:08:42;97288.88;;;2.69;100.00
5284;BME280;15377;48.540;9.268;2022-12-05T01:11:09;97281.03;;;2.55;100.00
5284;BME280;15377;48.540;9.268;2022-12-05T01:13:35;97284.63;;;2.68;100.00
5284;BME280;15377;48.540;9.268;2022-12-05T01:16:01;97285.84;;;2.67;100.00
5284;BME280;15377;48.540;9.268;2022-12-05T01:18:27;97283.97;;;2.64;100.00
5284;BME280;15377;48.540;9.268;2022-12-05T01:20:53;97285.84;;;2.67;100.00
5284;BME280;15377;48.540;9.268;2022-12-05T01:23:19;97281.19;;;2.68;100.00
5284;BME280;15377;48.540;9.268;2022-12-05T01:25:47;97285.41;;;2.69;100.00
5284;BME280;15377;48.540;9.268;2022-12-05T01:28:14;97277.84;;;2.60;100.00
5284;BME280;15377;48.540;9.268;2022-12-05T01:30:41;97271.28;;;2.58;100.00
5284;BME280;15377;48.540;9.268;2022-12-05T01:33:07;97279.03;;;2.59;100.00
5284;BME280;15377;48.540;9.268;2022-12-05T01:35:35;97293.50;;;2.72;100.00
5284;BME280;15377;48.540;9.268;2022-12-05T01:38:01;97299.25;;;2.74;100.00
5284;BME280;15377;48.540;9.268;2022-12-05T01:40:26;97301.63;;;2.72;100.00
5284;BME280;15377;48.540;9.268;2022-12-05T01:42:52;97300.44;;;2.73;100.00
5284;BME280;15377;48.540;9.268;2022-12-05T01:45:35;97294.66;;;2.71;100.00
5284;BME280;15377;48.540;9.268;2022-12-05T01:48:06;97266.13;;;2.63;100.00
5284;BME280;15377;48.540;9.268;2022-12-05T01:50:33;97284.56;;;2.72;100.00
5284;BME280;15377;48.540;9.268;2022-12-05T01:52:59;97290.06;;;2.68;100.00
5284;BME280;15377;48.540;9.268;2022-12-05T01:55:25;97288.78;;;2.57;100.00
5284;BME280;15377;48.540;9.268;2022-12-05T01:57:51;97297.63;;;2.61;100.00
5284;BME280;15377;48.540;9.268;2022-12-05T02:00:18;97292.13;;;2.64;100.00
5284;BME280;15377;48.540;9.268;2022-12-05T02:02:58;97285.09;;;2.47;100.00
5284;BME280;15377;48.540;9.268;2022-12-05T02:05:30;97303.97;;;2.54;100.00
5284;BME280;15377;48.540;9.268;2022-12-05T02:08:02;97306.06;;;2.47;100.00
5284;BME280;15377;48.540;9.268;2022-12-05T02:10:32;97312.97;;;2.51;100.00
5284;BME280;15377;48.540;9.268;2022-12-05T02:13:06;97316.00;;;2.53;100.00
5284;BME280;15377;48.540;9.268;2022-12-05T02:15:42;97308.09;;;2.43;100.00
5284;BME280;15377;48.540;9.268;2022-12-05T02:27:07;97322.81;;;2.61;100.00
5284;BME280;15377;48.540;9.268;2022-12-05T02:32:12;97298.28;;;2.49;100.00
5284;BME280;15377;48.540;9.268;2022-12-05T02:37:28;97317.00;;;2.79;100.00
5284;BME280;15377;48.540;9.268;2022-12-05T02:40:04;97315.91;;;2.76;100.00
5284;BME280;15377;48.540;9.268;2022-12-05T02:42:40;97311.09;;;2.84;100.00
5284;BME280;15377;48.540;9.268;2022-12-05T02:45:08;97289.06;;;2.78;100.00
5284;BME280;15377;48.540;9.268;2022-12-05T02:47:43;97301.97;;;2.74;100.00
5284;BME280;15377;48.540;9.268;2022-12-05T02:50:12;97303.00;;;2.64;100.00
5284;BME280;15377;48.540;9.268;2022-12-05T02:52:41;97306.69;;;2.54;100.00
5284;BME280;15377;48.540;9.268;2022-12-05T02:55:07;97303.84;;;2.42;100.00
5284;BME280;15377;48.540;9.268;2022-12-05T02:57:35;97298.72;;;2.28;100.00
5284;BME280;15377;48.540;9.268;2022-12-05T03:00:02;97311.94;;;2.26;100.00
5284;BME280;15377;48.540;9.268;2022-12-05T03:02:30;97309.75;;;2.21;100.00
5284;BME280;15377;48.540;9.268;2022-12-05T03:07:38;97301.88;;;2.26;100.00
5284;BME280;15377;48.540;9.268;2022-12-05T03:10:06;97298.72;;;2.28;100.00
5284;BME280;15377;48.540;9.268;2022-12-05T03:12:36;97305.78;;;2.25;100.00
5284;BME280;15377;48.540;9.268;2022-12-05T03:17:38;97286.72;;;2.09;100.00
5284;BME280;15377;48.540;9.268;2022-12-05T03:20:12;97317.94;;;2.17;100.00
5284;BME280;15377;48.540;9.268;2022-12-05T03:22:56;97326.91;;;2.14;100.00
5284;BME280;15377;48.540;9.268;2022-12-05T03:25:29;97322.94;;;2.19;100.00
5284;BME280;15377;48.540;9.268;2022-12-05T03:28:07;97313.63;;;2.20;100.00
5284;BME280;15377;48.540;9.268;2022-12-05T03:30:39;97309.66;;;2.24;100.00
5284;BME280;15377;48.540;9.268;2022-12-05T03:33:30;97315.78;;;2.28;100.00
5284;BME280;15377;48.540;9.268;2022-12-05T03:43:37;97314.84;;;2.35;100.00
5284;BME280;15377;48.540;9.268;2022-12-05T03:46:15;97299.97;;;2.23;100.00
5284;BME280;15377;48.540;9.268;2022-12-05T03:51:25;97307.97;;;2.30;100.00
5284;BME280;15377;48.540;9.268;2022-12-05T03:53:57;97295.91;;;2.31;100.00
5284;BME280;15377;48.540;9.268;2022-12-05T03:56:30;97267.72;;;2.09;100.00
5284;BME280;15377;48.540;9.268;2022-12-05T03:59:17;97297.41;;;2.16;100.00
5284;BME280;15377;48.540;9.268;2022-12-05T04:01:45;97288.38;;;2.03;100.00
5284;BME280;15377;48.540;9.268;2022-12-05T04:04:23;97305.34;;;2.07;100.00
5284;BME280;15377;48.540;9.268;2022-12-05T04:06:50;97285.59;;;1.87;100.00
5284;BME280;15377;48.540;9.268;2022-12-05T04:09:23;97291.69;;;1.91;100.00
5284;BME280;15377;48.540;9.268;2022-12-05T04:11:54;97309.25;;;2.06;100.00
5284;BME280;15377;48.540;9.268;2022-12-05T04:14:25;97300.75;;;2.04;100.00
5284;BME280;15377;48.540;9.268;2022-12-05T04:17:01;97315.84;;;2.05;100.00
5284;BME280;15377;48.540;9.268;2022-12-05T04:19:56;97326.78;;;2.02;100.00
5284;BME280;15377;48.540;9.268;2022-12-05T04:22:42;97332.06;;;1.89;100.00
5284;BME280;15377;48.540;9.268;2022-12-05T04:25:10;97318.22;;;1.84;100.00
5284;BME280;15377;48.540;9.268;2022-12-05T04:30:25;97318.66;;;1.59;100.00
5284;BME280;15377;48.540;9.268;2022-12-05T04:33:09;97326.09;;;1.55;100.00
5284;BME280;15377;48.540;9.268;2022-12-05T04:35:44;97317.31;;;1.48;100.00
5284;BME280;15377;48.540;9.268;2022-12-05T04:38:27;97308.91;;;1.42;100.00
5284;BME280;15377;48.540;9.268;2022-12-05T04:41:01;97320.09;;;1.44;100.00
5284;BME280;15377;48.540;9.268;2022-12-05T04:43:29;97326.81;;;1.36;100.00
5284;BME280;15377;48.540;9.268;2022-12-05T04:45:57;97339.19;;;1.37;100.00
5284;BME280;15377;48.540;9.268;2022-12-05T04:48:25;97326.22;;;1.25;100.00
5284;BME280;15377;48.540;9.268;2022-12-05T04:50:53;97337.06;;;1.25;100.00
5284;BME280;15377;48.540;9.268;2022-12-05T04:53:20;97325.03;;;1.03;100.00
5284;BME280;15377;48.540;9.268;2022-12-05T04:55:49;97337.50;;;0.97;100.00
5284;BME280;15377;48.540;9.268;2022-12-05T04:58:24;97334.75;;;0.74;100.00
5284;BME280;15377;48.540;9.268;2022-12-05T05:01:18;97363.09;;;0.66;100.00
5284;BME280;15377;48.540;9.268;2022-12-05T05:03:50;97371.19;;;0.70;100.00
5284;BME280;15377;48.540;9.268;2022-12-05T05:06:18;97369.91;;;0.78;100.00
5284;BME280;15377;48.540;9.268;2022-12-05T05:08:49;97361.03;;;0.77;100.00
5284;BME280;15377;48.540;9.268;2022-12-05T05:13:43;97377.09;;;0.91;100.00
5284;BME280;15377;48.540;9.268;2022-12-05T05:16:16;97375.97;;;0.89;100.00
5284;BME280;15377;48.540;9.268;2022-12-05T05:18:43;97376.72;;;0.89;100.00
5284;BME280;15377;48.540;9.268;2022-12-05T05:21:30;97388.69;;;0.92;100.00
5284;BME280;15377;48.540;9.268;2022-12-05T05:23:56;97394.56;;;0.87;100.00
5284;BME280;15377;48.540;9.268;2022-12-05T05:26:22;97389.91;;;0.87;100.00
5284;BME280;15377;48.540;9.268;2022-12-05T05:28:48;97393.28;;;0.95;100.00
5284;BME280;15377;48.540;9.268;2022-12-05T05:31:14;97375.53;;;0.90;100.00
5284;BME280;15377;48.540;9.268;2022-12-05T05:33:40;97365.16;;;0.85;100.00
5284;BME280;15377;48.540;9.268;2022-12-05T05:36:08;97364.59;;;0.97;100.00
5284;BME280;15377;48.540;9.268;2022-12-05T05:38:45;97355.31;;;0.98;100.00
5284;BME280;15377;48.540;9.268;2022-12-05T05:41:16;97352.59;;;0.98;100.00
5284;BME280;15377;48.540;9.268;2022-12-05T05:43:42;97359.06;;;1.04;100.00
5284;BME280;15377;48.540;9.268;2022-12-05T05:46:08;97365.22;;;1.08;100.00
5284;BME280;15377;48.540;9.268;2022-12-05T05:48:33;97353.66;;;1.04;100.00
5284;BME280;15377;48.540;9.268;2022-12-05T05:51:00;97377.38;;;1.23;100.00
5284;BME280;15377;48.540;9.268;2022-12-05T05:53:26;97383.16;;;1.25;100.00
5284;BME280;15377;48.540;9.268;2022-12-05T05:55:51;97383.50;;;1.27;100.00
5284;BME280;15377;48.540;9.268;2022-12-05T05:58:17;97382.69;;;1.30;100.00
5284;BME280;15377;48.540;9.268;2022-12-05T06:00:42;97377.28;;;1.30;100.00
5284;BME280;15377;48.540;9.268;2022-12-05T06:03:08;97387.34;;;1.30;100.00
5284;BME280;15377;48.540;9.268;2022-12-05T06:05:33;97382.81;;;1.23;100.00
5284;BME280;15377;48.540;9.268;2022-12-05T06:07:59;97403.41;;;1.17;100.00
5284;BME280;15377;48.540;9.268;2022-12-05T06:10:24;97399.56;;;1.15;100.00
5284;BME280;15377;48.540;9.268;2022-12-05T06:12:49;97406.16;;;1.14;100.00
5284;BME280;15377;48.540;9.268;2022-12-05T06:15:15;97413.91;;;1.15;100.00
5284;BME280;15377;48.540;9.268;2022-12-05T06:17:40;97421.97;;;1.19;100.00
5284;BME280;15377;48.540;9.268;2022-12-05T06:20:06;97422.97;;;1.28;100.00
5284;BME280;15377;48.540;9.268;2022-12-05T06:22:32;97411.31;;;1.31;100.00
5284;BME280;15377;48.540;9.268;2022-12-05T06:24:58;97412.03;;;1.35;100.00
5284;BME280;15377;48.540;9.268;2022-12-05T06:27:23;97424.34;;;1.40;100.00
5284;BME280;15377;48.540;9.268;2022-12-05T06:29:48;97409.56;;;1.44;100.00
5284;BME280;15377;48.540;9.268;2022-12-05T06:32:14;97409.09;;;1.49;100.00
5284;BME280;15377;48.540;9.268;2022-12-05T06:34:40;97397.19;;;1.43;100.00
5284;BME280;15377;48.540;9.268;2022-12-05T06:37:05;97398.25;;;1.49;100.00
5284;BME280;15377;48.540;9.268;2022-12-05T06:39:30;97409.00;;;1.56;100.00
5284;BME280;15377;48.540;9.268;2022-12-05T06:41:56;97406.63;;;1.58;100.00
5284;BME280;15377;48.540;9.268;2022-12-05T06:44:21;97407.41;;;1.59;100.00
5284;BME280;15377;48.540;9.268;2022-12-05T06:46:51;97417.81;;;1.60;100.00
5284;BME280;15377;48.540;9.268;2022-12-05T06:49:16;97424.66;;;1.68;100.00
5284;BME280;15377;48.540;9.268;2022-12-05T06:51:41;97434.34;;;1.69;100.00
5284;BME280;15377;48.540;9.268;2022-12-05T06:54:07;97439.34;;;1.71;100.00
5284;BME280;15377;48.540;9.268;2022-12-05T06:56:32;97453.19;;;1.76;100.00
5284;BME280;15377;48.540;9.268;2022-12-05T06:58:57;97453.13;;;1.80;100.00
5284;BME280;15377;48.540;9.268;2022-12-05T07:01:23;97457.31;;;1.84;100.00
5284;BME280;15377;48.540;9.268;2022-12-05T07:04:14;97463.06;;;1.90;100.00
5284;BME280;15377;48.540;9.268;2022-12-05T07:06:41;97457.53;;;1.97;100.00
5284;BME280;15377;48.540;9.268;2022-12-05T07:09:08;97455.22;;;1.95;100.00
5284;BME280;15377;48.540;9.268;2022-12-05T07:11:33;97466.00;;;1.99;100.00
5284;BME280;15377;48.540;9.268;2022-12-05T07:13:59;97482.19;;;2.06;100.00
5284;BME280;15377;48.540;9.268;2022-12-05T07:16:25;97475.00;;;2.15;100.00
5284;BME280;15377;48.540;9.268;2022-12-05T07:18:50;97467.94;;;2.21;100.00
5284;BME280;15377;48.540;9.268;2022-12-05T07:21:16;97465.44;;;2.30;100.00
5284;BME280;15377;48.540;9.268;2022-12-05T07:23:44;97475.00;;;2.38;100.00
5284;BME280;15377;48.540;9.268;2022-12-05T07:26:12;97476.09;;;2.41;100.00
5284;BME280;15377;48.540;9.268;2022-12-05T07:28:38;97484.53;;;2.46;100.00
5284;BME280;15377;48.540;9.268;2022-12-05T07:31:06;97474.25;;;2.57;100.00
5284;BME280;15377;48.540;9.268;2022-12-05T07:33:32;97465.81;;;2.52;100.00
5284;BME280;15377;48.540;9.268;2022-12-05T07:36:03;97465.00;;;2.55;100.00
5284;BME280;15377;48.540;9.268;2022-12-05T07:38:29;97467.28;;;2.56;100.00
5284;BME280;15377;48.540;9.268;2022-12-05T07:40:55;97479.19;;;2.62;100.00
5284;BME280;15377;48.540;9.268;2022-12-05T07:43:20;97481.09;;;2.65;100.00
5284;BME280;15377;48.540;9.268;2022-12-05T07:45:46;97473.88;;;2.75;100.00
5284;BME280;15377;48.540;9.268;2022-12-05T07:48:11;97437.63;;;2.65;100.00
5284;BME280;15377;48.540;9.268;2022-12-05T07:50:36;97458.22;;;2.82;100.00
5284;BME280;15377;48.540;9.268;2022-12-05T07:53:02;97461.16;;;2.91;100.00
5284;BME280;15377;48.540;9.268;2022-12-05T07:55:27;97479.75;;;3.12;100.00
5284;BME280;15377;48.540;9.268;2022-12-05T07:57:52;97489.41;;;3.13;100.00
5284;BME280;15377;48.540;9.268;2022-12-05T08:00:18;97495.38;;;3.24;100.00
5284;BME280;15377;48.540;9.268;2022-12-05T08:02:44;97514.13;;;3.38;100.00
5284;BME280;15377;48.540;9.268;2022-12-05T08:05:09;97509.56;;;3.51;100.00
5284;BME280;15377;48.540;9.268;2022-12-05T08:07:34;97504.81;;;3.71;100.00
5284;BME280;15377;48.540;9.268;2022-12-05T08:10:00;97496.50;;;3.78;100.00
5284;BME280;15377;48.540;9.268;2022-12-05T08:12:25;97500.91;;;3.88;100.00
5284;BME280;15377;48.540;9.268;2022-12-05T08:14:50;97502.97;;;4.00;100.00
5284;BME280;15377;48.540;9.268;2022-12-05T08:17:16;97486.81;;;3.93;100.00
5284;BME280;15377;48.540;9.268;2022-12-05T08:19:42;97510.78;;;4.30;100.00
5284;BME280;15377;48.540;9.268;2022-12-05T08:22:07;97509.56;;;4.47;100.00
5284;BME280;15377;48.540;9.268;2022-12-05T08:24:33;97514.16;;;4.50;100.00
5284;BME280;15377;48.540;9.268;2022-12-05T08:26:58;97490.78;;;4.36;100.00
5284;BME280;15377;48.540;9.268;2022-12-05T08:29:23;97514.97;;;4.63;100.00
5284;BME280;15377;48.540;9.268;2022-12-05T08:31:50;97519.38;;;4.73;100.00
5284;BME280;15377;48.540;9.268;2022-12-05T08:34:17;97497.28;;;4.55;100.00
5284;BME280;15377;48.540;9.268;2022-12-05T08:36:43;97524.00;;;4.60;100.00
5284;BME280;15377;48.540;9.268;2022-12-05T08:39:11;97530.00;;;4.55;100.00
5284;BME280;15377;48.540;9.268;2022-12-05T08:41:39;97532.72;;;4.55;100.00
5284;BME280;15377;48.540;9.268;2022-12-05T08:44:05;97538.16;;;4.55;100.00
5284;BME280;15377;48.540;9.268;2022-12-05T08:46:32;97541.56;;;4.59;100.00
5284;BME280;15377;48.540;9.268;2022-12-05T08:48:58;97539.16;;;4.77;100.00
5284;BME280;15377;48.540;9.268;2022-12-05T08:51:24;97541.81;;;4.93;100.00
5284;BME280;15377;48.540;9.268;2022-12-05T08:53:49;97555.50;;;5.05;100.00
5284;BME280;15377;48.540;9.268;2022-12-05T08:56:15;97545.06;;;5.16;100.00
5284;BME280;15377;48.540;9.268;2022-12-05T08:58:40;97552.03;;;5.17;100.00
5284;BME280;15377;48.540;9.268;2022-12-05T09:01:11;97562.31;;;5.26;100.00
5284;BME280;15377;48.540;9.268;2022-12-05T09:03:37;97550.41;;;5.20;100.00
5284;BME280;15377;48.540;9.268;2022-12-05T09:08:35;97550.94;;;5.15;100.00
5284;BME280;15377;48.540;9.268;2022-12-05T09:11:09;97558.38;;;5.14;100.00
5284;BME280;15377;48.540;9.268;2022-12-05T09:13:35;97542.09;;;5.11;100.00
5284;BME280;15377;48.540;9.268;2022-12-05T09:16:08;97568.03;;;5.03;100.00
5284;BME280;15377;48.540;9.268;2022-12-05T09:18:34;97582.00;;;5.05;100.00
5284;BME280;15377;48.540;9.268;2022-12-05T09:21:25;97587.44;;;5.05;100.00
5284;BME280;15377;48.540;9.268;2022-12-05T09:23:52;97602.28;;;5.04;100.00
5284;BME280;15377;48.540;9.268;2022-12-05T09:26:21;97592.25;;;5.01;100.00
5284;BME280;15377;48.540;9.268;2022-12-05T09:28:47;97599.88;;;5.06;100.00
5284;BME280;15377;48.540;9.268;2022-12-05T09:31:15;97609.28;;;5.05;100.00
5284;BME280;15377;48.540;9.268;2022-12-05T09:33:41;97611.56;;;5.06;100.00
5284;BME280;15377;48.540;9.268;2022-12-05T09:36:28;97620.69;;;5.16;100.00
5284;BME280;15377;48.540;9.268;2022-12-05T09:38:55;97617.41;;;5.21;100.00
5284;BME280;15377;48.540;9.268;2022-12-05T09:41:33;97586.59;;;5.08;100.00
5284;BME280;15377;48.540;9.268;2022-12-05T09:47:12;97619.75;;;5.35;100.00
5284;BME280;15377;48.540;9.268;2022-12-05T09:49:46;97614.63;;;5.37;100.00
5284;BME280;15377;48.540;9.268;2022-12-05T09:52:22;97621.00;;;5.46;100.00
5284;BME280;15377;48.540;9.268;2022-12-05T09:54:48;97624.28;;;5.54;100.00
5284;BME280;15377;48.540;9.268;2022-12-05T09:57:17;97622.75;;;5.53;100.00
5284;BME280;15377;48.540;9.268;2022-12-05T09:59:45;97614.00;;;5.45;100.00
5284;BME280;15377;48.540;9.268;2022-12-05T10:02:28;97615.13;;;5.48;100.00
5284;BME280;15377;48.540;9.268;2022-12-05T10:13:20;97597.44;;;5.52;100.00
5284;BME280;15377;48.540;9.268;2022-12-05T10:15:53;97612.72;;;5.62;100.00
5284;BME280;15377;48.540;9.268;2022-12-05T10:23:58;97596.69;;;5.64;100.00
5284;BME280;15377;48.540;9.268;2022-12-05T10:26:31;97595.47;;;5.65;100.00
5284;BME280;15377;48.540;9.268;2022-12-05T10:31:43;97595.00;;;5.83;100.00
5284;BME280;15377;48.540;9.268;2022-12-05T10:34:15;97597.50;;;5.90;100.00
5284;BME280;15377;48.540;9.268;2022-12-05T10:37:09;97602.19;;;6.02;100.00
5284;BME280;15377;48.540;9.268;2022-12-05T10:39:36;97598.09;;;6.10;100.00
5284;BME280;15377;48.540;9.268;2022-12-05T10:42:02;97600.56;;;6.17;100.00
5284;BME280;15377;48.540;9.268;2022-12-05T10:44:28;97575.25;;;6.04;100.00
5284;BME280;15377;48.540;9.268;2022-12-05T10:46:54;97600.34;;;6.24;100.00
5284;BME280;15377;48.540;9.268;2022-12-05T10:49:20;97594.88;;;6.24;100.00
5284;BME280;15377;48.540;9.268;2022-12-05T10:51:47;97592.16;;;6.24;100.00
5284;BME280;15377;48.540;9.268;2022-12-05T10:54:20;97594.34;;;6.29;100.00
5284;BME280;15377;48.540;9.268;2022-12-05T10:56:48;97596.72;;;6.52;100.00
5284;BME280;15377;48.540;9.268;2022-12-05T10:59:17;97586.41;;;6.68;100.00
5284;BME280;15377;48.540;9.268;2022-12-05T11:01:53;97602.38;;;7.03;100.00
5284;BME280;15377;48.540;9.268;2022-12-05T11:04:22;97608.88;;;7.18;100.00
5284;BME280;15377;48.540;9.268;2022-12-05T11:06:59;97595.91;;;7.31;100.00
5284;BME280;15377;48.540;9.268;2022-12-05T11:09:36;97603.03;;;7.29;100.00
5284;BME280;15377;48.540;9.268;2022-12-05T11:12:12;97605.34;;;7.30;100.00
5284;BME280;15377;48.540;9.268;2022-12-05T11:14:38;97608.41;;;7.32;100.00
5284;BME280;15377;48.540;9.268;2022-12-05T11:17:05;97606.88;;;7.31;100.00
5284;BME280;15377;48.540;9.268;2022-12-05T11:19:31;97598.09;;;7.36;100.00
5284;BME280;15377;48.540;9.268;2022-12-05T11:21:57;97584.13;;;7.22;100.00
5284;BME280;15377;48.540;9.268;2022-12-05T11:24:38;97606.09;;;7.09;100.00
5284;BME280;15377;48.540;9.268;2022-12-05T11:32:25;97594.38;;;7.09;100.00
5284;BME280;15377;48.540;9.268;2022-12-05T11:34:57;97591.94;;;6.90;100.00
5284;BME280;15377;48.540;9.268;2022-12-05T11:37:28;97598.69;;;6.98;100.00
5284;BME280;15377;48.540;9.268;2022-12-05T11:39:56;97569.09;;;6.84;100.00
5284;BME280;15377;48.540;9.268;2022-12-05T11:48:42;97582.28;;;6.98;100.00
5284;BME280;15377;48.540;9.268;2022-12-05T11:54:04;97594.22;;;6.91;100.00
5284;BME280;15377;48.540;9.268;2022-12-05T11:56:42;97585.09;;;7.07;100.00
5284;BME280;15377;48.540;9.268;2022-12-05T12:10:36;97584.22;;;8.13;100.00
5284;BME280;15377;48.540;9.268;2022-12-05T12:13:23;97579.44;;;8.35;100.00
5284;BME280;15377;48.540;9.268;2022-12-05T12:21:57;97572.31;;;8.38;100.00
5284;BME280;15377;48.540;9.268;2022-12-05T12:30:14;97564.91;;;7.86;100.00
5284;BME280;15377;48.540;9.268;2022-12-05T12:40:58;97596.78;;;7.71;100.00
5284;BME280;15377;48.540;9.268;2022-12-05T12:49:06;97593.94;;;7.75;100.00
5284;BME280;15377;48.540;9.268;2022-12-05T12:51:51;97573.25;;;7.52;100.00
5284;BME280;15377;48.540;9.268;2022-12-05T12:57:54;97582.28;;;7.83;100.00
5284;BME280;15377;48.540;9.268;2022-12-05T13:00:47;97585.66;;;7.96;100.00
5284;BME280;15377;48.540;9.268;2022-12-05T13:03:26;97585.41;;;8.03;100.00
5284;BME280;15377;48.540;9.268;2022-12-05T13:05:53;97573.38;;;8.10;100.00
5284;BME280;15377;48.540;9.268;2022-12-05T13:08:27;97579.63;;;8.10;100.00
5284;BME280;15377;48.540;9.268;2022-12-05T13:10:54;97565.03;;;8.13;100.00
5284;BME280;15377;48.540;9.268;2022-12-05T13:13:29;97568.75;;;8.28;100.00
5284;BME280;15377;48.540;9.268;2022-12-05T13:15:59;97562.41;;;8.31;100.00
5284;BME280;15377;48.540;9.268;2022-12-05T13:18:26;97564.84;;;8.38;100.00
5284;BME280;15377;48.540;9.268;2022-12-05T13:20:56;97545.59;;;8.29;100.00
5284;BME280;15377;48.540;9.268;2022-12-05T13:23:30;97555.69;;;8.32;100.00
5284;BME280;15377;48.540;9.268;2022-12-05T13:25:58;97560.22;;;8.26;100.00
5284;BME280;15377;48.540;9.268;2022-12-05T13:28:33;97569.31;;;8.14;100.00
5284;BME280;15377;48.540;9.268;2022-12-05T13:31:07;97564.88;;;8.17;100.00
5284;BME280;15377;48.540;9.268;2022-12-05T13:33:50;97571.19;;;8.26;100.00
5284;BME280;15377;48.540;9.268;2022-12-05T13:36:21;97575.84;;;8.17;100.00
5284;BME280;15377;48.540;9.268;2022-12-05T13:39:27;97570.13;;;7.93;100.00
5284;BME280;15377;48.540;9.268;2022-12-05T13:42:31;97565.81;;;7.83;100.00
5284;BME280;15377;48.540;9.268;2022-12-05T13:50:33;97588.88;;;7.73;100.00
5284;BME280;15377;48.540;9.268;2022-12-05T13:53:03;97575.97;;;7.74;100.00
5284;BME280;15377;48.540;9.268;2022-12-05T13:55:34;97585.72;;;7.75;100.00
5284;BME280;15377;48.540;9.268;2022-12-05T13:58:02;97576.16;;;7.79;100.00
5284;BME280;15377;48.540;9.268;2022-12-05T14:00:29;97583.41;;;7.73;100.00
5284;BME280;15377;48.540;9.268;2022-12-05T14:02:58;97585.22;;;7.67;100.00
5284;BME280;15377;48.540;9.268;2022-12-05T14:07:56;97582.41;;;7.58;100.00
5284;BME280;15377;48.540;9.268;2022-12-05T14:12:55;97584.97;;;7.53;100.00
5284;BME280;15377;48.540;9.268;2022-12-05T14:17:55;97590.25;;;7.26;100.00
5284;BME280;15377;48.540;9.268;2022-12-05T14:20:34;97585.47;;;7.17;100.00
5284;BME280;15377;48.540;9.268;2022-12-05T14:29:22;97601.63;;;7.03;100.00
5284;BME280;15377;48.540;9.268;2022-12-05T14:34:53;97582.44;;;6.82;100.00
5284;BME280;15377;48.540;9.268;2022-12-05T14:39:51;97598.53;;;6.67;100.00
5284;BME280;15377;48.540;9.268;2022-12-05T14:45:27;97597.72;;;6.58;100.00
5284;BME280;15377;48.540;9.268;2022-12-05T14:47:58;97587.97;;;6.44;100.00
5284;BME280;15377;48.540;9.268;2022-12-05T14:55:45;97594.13;;;6.36;100.00
5284;BME280;15377;48.540;9.268;2022-12-05T15:04:37;97608.44;;;6.27;100.00
5284;BME280;15377;48.540;9.268;2022-12-05T15:07:08;97598.81;;;6.23;100.00
5284;BME280;15377;48.540;9.268;2022-12-05T15:12:47;97599.94;;;6.13;100.00
5284;BME280;15377;48.540;9.268;2022-12-05T15:15:24;97604.72;;;6.09;100.00
5284;BME280;15377;48.540;9.268;2022-12-05T15:18:22;97611.19;;;6.15;100.00
5284;BME280;15377;48.540;9.268;2022-12-05T15:21:01;97608.56;;;6.11;100.00
5284;BME280;15377;48.540;9.268;2022-12-05T15:23:46;97613.16;;;6.14;100.00
5284;BME280;15377;48.540;9.268;2022-12-05T15:28:40;97620.78;;;6.07;100.00
5284;BME280;15377;48.540;9.268;2022-12-05T15:31:10;97620.16;;;6.03;100.00
5284;BME280;15377;48.540;9.268;2022-12-05T15:33:49;97628.00;;;6.01;100.00
5284;BME280;15377;48.540;9.268;2022-12-05T15:36:16;97623.09;;;5.96;100.00
5284;BME280;15377;48.540;9.268;2022-12-05T15:38:43;97628.56;;;5.96;100.00
5284;BME280;15377;48.540;9.268;2022-12-05T15:41:16;97626.34;;;5.91;100.00
5284;BME280;15377;48.540;9.268;2022-12-05T15:43:42;97621.09;;;5.84;100.00
5284;BME280;15377;48.540;9.268;2022-12-05T15:46:24;97638.16;;;5.88;100.00
5284;BME280;15377;48.540;9.268;2022-12-05T15:48:54;97641.22;;;5.90;100.00
5284;BME280;15377;48.540;9.268;2022-12-05T15:51:31;97649.50;;;5.86;100.00
5284;BME280;15377;48.540;9.268;2022-12-05T15:56:41;97659.50;;;5.77;100.00
5284;BME280;15377;48.540;9.268;2022-12-05T15:59:23;97663.63;;;5.69;100.00
5284;BME280;15377;48.540;9.268;2022-12-05T16:01:54;97671.16;;;5.65;100.00
5284;BME280;15377;48.540;9.268;2022-12-05T16:04:38;97662.50;;;5.54;100.00